Погода Каменно-Андриановона 2 недели

Ростовская область, Россия

19 июня-02 июля
  • 19июня
    Сегодня
    +18°
    +33°
    Практически безоблачно
    ВремяПогодаТемператураВлажностьДавлениеВетер, м/сВероятность осадков
    00:00Ясно и безоблачно+21°C80 %759 мм1.7 м/с2 %
    03:00Ясно и безоблачно+20°C86 %759 мм1.7 м/с2 %
    06:00Ясно и безоблачно+21°C82 %760 мм2.4 м/с2 %
    09:00Ясно и безоблачно+29°C55 %760 мм2.4 м/с2 %
    12:00Ясно и безоблачно+31°C39 %760 мм1.9 м/с2 %
    15:00Практически безоблачно+33°C32 %759 мм1.9 м/с2 %
    18:00Практически безоблачно+32°C33 %759 мм2.6 м/с2 %
    21:00Ясно и безоблачно+24°C53 %759 мм2.2 м/с2 %
  • 20июня
    Четверг
    +14°
    +34°
    Ясно и безоблачно
    ВремяПогодаТемператураВлажностьДавлениеВетер, м/сВероятность осадков
    00:00Ясно и безоблачно+23°C63 %759 мм0.8 м/с2 %
    03:00Ясно и безоблачно+20°C74 %759 мм1.5 м/с2 %
    06:00Ясно и безоблачно+21°C74 %758 мм1.4 м/с2 %
    09:00Ясно и безоблачно+31°C41 %758 мм2.3 м/с2 %
    12:00Ясно и безоблачно+33°C32 %756 мм3.5 м/с2 %
    15:00Ясно и безоблачно+34°C32 %755 мм5.0 м/с2 %
    18:00Ясно и безоблачно+32°C40 %753 мм5.2 м/с2 %
    21:00Практически безоблачно+26°C57 %753 мм4.7 м/с7 %
  • 21июня
    Пятница
    +17°
    +25°
    Практически безоблачно
    ВремяПогодаТемператураВлажностьДавлениеВетер, м/сВероятность осадков
    00:00Небольшая облачность, возможен дождь с грозой+17°C84 %755 мм5.5 м/с48 %
    03:00Ясно и безоблачно+15°C79 %756 мм6.1 м/с40 %
    06:00Ясно и безоблачно+16°C65 %756 мм6.1 м/с2 %
    09:00Ясно и безоблачно+22°C50 %756 мм6.7 м/с3 %
    12:00Практически безоблачно+26°C30 %755 мм8.5 м/с8 %
    15:00Практически безоблачно+28°C28 %754 мм8.6 м/с11 %
    18:00Небольшая облачность+26°C32 %754 мм7.6 м/с5 %
    21:00Ясно и безоблачно+23°C42 %755 мм5.0 м/с4 %
  • 22июня
    Суббота
    +16°
    +30°
    Ясно и безоблачно
    ВремяПогодаТемператураВлажностьДавлениеВетер, м/сВероятность осадков
    00:00Ясно и безоблачно+20°C55 %755 мм4.4 м/с4 %
    03:00Ясно и безоблачно+18°C66 %755 мм4.1 м/с4 %
    06:00Ясно и безоблачно+18°C68 %755 мм4.1 м/с2 %
    09:00Ясно и безоблачно+25°C45 %755 мм5.6 м/с2 %
    12:00Ясно и безоблачно+28°C36 %755 мм5.1 м/с2 %
    15:00Ясно и безоблачно+30°C34 %754 мм4.8 м/с2 %
    18:00Ясно и безоблачно+28°C36 %754 мм4.5 м/с2 %
    21:00Ясно и безоблачно+25°C48 %755 мм3.0 м/с2 %
  • 23июня
    Воскресенье
    +20°
    +32°
    Небольшая облачность
    ВремяПогодаТемператураВлажностьДавлениеВетер, м/сВероятность осадков
    00:00Ясно и безоблачно+21°C58 %756 мм2.2 м/с2 %
    03:00Ясно и безоблачно+18°C73 %755 мм1.7 м/с2 %
    06:00Ясно и безоблачно+19°C71 %756 мм2.1 м/с2 %
    09:00Небольшая облачность+27°C43 %756 мм1.7 м/с2 %
    12:00Ясно и безоблачно+31°C35 %756 мм1.8 м/с2 %
    15:00Небольшая облачность+33°C31 %755 мм2.4 м/с2 %
    18:00Практически безоблачно+33°C29 %754 мм2.2 м/с2 %
    21:00Практически безоблачно+26°C54 %755 мм2.3 м/с2 %
Мы используем cookies
Соглашаюсь